Aérodrome :
LOGIN :

S'inscrire | Disclaimer

   EN    FR    IT 

 










Légende :    VFR   VFR Marginal   IFR   IFR Intensif   IFR Très Intensif
Visi : 
Plafond : 
>= 8 km
>= 3000ft
5 à 8 km
1000 à 3000 ft
1500m à 5 km
500 à 1000 ft
800 à 1500m
200 à 500 ft
< 800m
< 200 ft
Symboles :   Orages  Brouillard  Fortes neiges  Fortes précipitations  Vent > 20 kt
SIGMETs :   Divers  Orages  Givrage  Turbulence  Onde Orograph.  Cendres Volcan.







- Altitude de l'aérodrome : 681 ft
- Code IATA : LBA
- Voir les cartes d'approche


EGNM - Leeds Bradford

DERNIER METAR :
  • 131450Z 12011KT 9999 BKN028 04/M00 Q1019

METARs EXPIRÉS :
  • 131420Z 12012KT 9999 BKN024 04/M00 Q1018
  • 131350Z 13012KT 9999 BKN024 04/M00 Q1018
  • 131320Z 13014KT 100V160 9999 FEW016 SCT030 04/M00 Q1018
  • 131250Z 12013KT 9999 FEW018 SCT032 03/M00 Q1019
  • 131220Z 12013KT 9999 FEW018 SCT032 03/M01 Q1019

TAF TAF EGNM
Valide du 13 à 12h jusqu'au 14 à 12h UTC


131101Z 1312/1412 14014KT 9999 SCT035
PROB30 1403/1409 4000 BR
PROB40 1409/1412 6000
ATIS : +44 113 250 9696 (x2489)
Pas de NOTAMs connus pour ce terrain.
1 SIGMET publié pour la FIR London (EGTT) :
 
Turbulence forte
EGTT SIGMET 02 VALID 131100/131500 EGRR
EGTT LONDON FIR SEV TURB FCST WI N4853 W00746 - N5148 W00630 - N5220 W00530 - N5407 W00530 - N5449 W00512 - N5500 W00518 - N5500 W00414 - N5445 W00421 - N4940 W00343 - N4853 W00746 SFC/FL060 STNR NC=



MET'MAP, la Météo Aéronautique d'un coup d'oeil ! - Copyright ORBIFLY Décembre 2007 - Disclaimer

ORBIFLY MET'MAP TEAM :

Programmation & Développement : Alexandra Zaïnal
Conception & Développement : Baudouin d'Aumeries
Co-Programmation & Développement : Marc-Olivier Méhu
Soutien technique & logistique : Manuel Goepfert

Contact : metmap@orbifly.com




SOURCES & CREDITS :

   NOAA